<?xml version="1.0" encoding="UTF-8" standalone="no" ?>
<gpx xmlns="http://www.topografix.com/GPX/1/1" xmlns:xsi="http://www.w3.org/2001/XMLSchema-instance" xsi:schemaLocation="http://www.topografix.com/GPX/1/1 http://www.topografix.com/GPX/1/1/gpx.xsd" version="1.1" creator="VisuGPX - https://www.visugpx.com">
  <metadata>
    <name>Sortie GUM: tricotage autour du petit Som</name>
    <desc><![CDATA[Le tracé de la sortie GUM effectuée dimanche 25/01/2015.
Il manque la fin du parcours (le GPS a du se planter dans le tunnel au dessus du couvent).
Le fichier a été préalablement retravaillé afin d\'éviter les erreurs du au GPS car sinon on explosait avec 1570m de D  :-)
Cette version est plus réaliste avec 1027m D ]]></desc>
  </metadata>
  <trk>
    <name><![CDATA[Ski_rando_chartreuse]]></name>
    <trkseg>
      <trkpt lat="45.35595" lon="5.78786">
        <ele>821</ele>
        <time>2015-01-25T09:07:08Z</time>
      </trkpt>
      <trkpt lat="45.35627" lon="5.78781">
        <ele>826</ele>
        <time>2015-01-25T09:08:01Z</time>
      </trkpt>
      <trkpt lat="45.35635" lon="5.78784">
        <ele>827</ele>
        <time>2015-01-25T09:08:17Z</time>
      </trkpt>
      <trkpt lat="45.3565" lon="5.7879">
        <ele>829</ele>
        <time>2015-01-25T09:08:55Z</time>
      </trkpt>
      <trkpt lat="45.35651" lon="5.78789">
        <ele>830</ele>
        <time>2015-01-25T09:09:20Z</time>
      </trkpt>
      <trkpt lat="45.35651" lon="5.78789">
        <ele>830</ele>
        <time>2015-01-25T09:09:41Z</time>
      </trkpt>
      <trkpt lat="45.35653" lon="5.7879">
        <ele>830</ele>
        <time>2015-01-25T09:10:07Z</time>
      </trkpt>
      <trkpt lat="45.35653" lon="5.78791">
        <ele>830</ele>
        <time>2015-01-25T09:10:25Z</time>
      </trkpt>
      <trkpt lat="45.35654" lon="5.78791">
        <ele>830</ele>
        <time>2015-01-25T09:10:37Z</time>
      </trkpt>
      <trkpt lat="45.35813" lon="5.78879">
        <ele>838</ele>
        <time>2015-01-25T09:12:18Z</time>
      </trkpt>
      <trkpt lat="45.35833" lon="5.7889">
        <ele>838</ele>
        <time>2015-01-25T09:12:30Z</time>
      </trkpt>
      <trkpt lat="45.35891" lon="5.78911">
        <ele>843</ele>
        <time>2015-01-25T09:13:40Z</time>
      </trkpt>
      <trkpt lat="45.35891" lon="5.78912">
        <ele>843</ele>
        <time>2015-01-25T09:13:56Z</time>
      </trkpt>
      <trkpt lat="45.35891" lon="5.78912">
        <ele>843</ele>
        <time>2015-01-25T09:14:23Z</time>
      </trkpt>
      <trkpt lat="45.35892" lon="5.78912">
        <ele>844</ele>
        <time>2015-01-25T09:14:39Z</time>
      </trkpt>
      <trkpt lat="45.35893" lon="5.78912">
        <ele>844</ele>
        <time>2015-01-25T09:14:55Z</time>
      </trkpt>
      <trkpt lat="45.35962" lon="5.78927">
        <ele>864</ele>
        <time>2015-01-25T09:15:45Z</time>
      </trkpt>
      <trkpt lat="45.35965" lon="5.78928">
        <ele>865</ele>
        <time>2015-01-25T09:16:09Z</time>
      </trkpt>
      <trkpt lat="45.35966" lon="5.78929">
        <ele>865</ele>
        <time>2015-01-25T09:16:21Z</time>
      </trkpt>
      <trkpt lat="45.35968" lon="5.78931">
        <ele>865</ele>
        <time>2015-01-25T09:16:40Z</time>
      </trkpt>
      <trkpt lat="45.3608" lon="5.78999">
        <ele>901</ele>
        <time>2015-01-25T09:17:48Z</time>
      </trkpt>
      <trkpt lat="45.36097" lon="5.79012">
        <ele>904</ele>
        <time>2015-01-25T09:18:04Z</time>
      </trkpt>
      <trkpt lat="45.36115" lon="5.7902">
        <ele>909</ele>
        <time>2015-01-25T09:18:21Z</time>
      </trkpt>
      <trkpt lat="45.36116" lon="5.7902">
        <ele>909</ele>
        <time>2015-01-25T09:18:38Z</time>
      </trkpt>
      <trkpt lat="45.36117" lon="5.79021">
        <ele>909</ele>
        <time>2015-01-25T09:18:55Z</time>
      </trkpt>
      <trkpt lat="45.36118" lon="5.79022">
        <ele>909</ele>
        <time>2015-01-25T09:19:25Z</time>
      </trkpt>
      <trkpt lat="45.36119" lon="5.79023">
        <ele>909</ele>
        <time>2015-01-25T09:19:39Z</time>
      </trkpt>
      <trkpt lat="45.3612" lon="5.79025">
        <ele>909</ele>
        <time>2015-01-25T09:19:52Z</time>
      </trkpt>
      <trkpt lat="45.3612" lon="5.79026">
        <ele>908</ele>
        <time>2015-01-25T09:19:58Z</time>
      </trkpt>
      <trkpt lat="45.36247" lon="5.79093">
        <ele>931</ele>
        <time>2015-01-25T09:21:00Z</time>
      </trkpt>
      <trkpt lat="45.36317" lon="5.79143">
        <ele>941</ele>
        <time>2015-01-25T09:23:32Z</time>
      </trkpt>
      <trkpt lat="45.36342" lon="5.79157">
        <ele>944</ele>
        <time>2015-01-25T09:23:47Z</time>
      </trkpt>
      <trkpt lat="45.36412" lon="5.79203">
        <ele>951</ele>
        <time>2015-01-25T09:25:27Z</time>
      </trkpt>
      <trkpt lat="45.36445" lon="5.79216">
        <ele>956</ele>
        <time>2015-01-25T09:26:03Z</time>
      </trkpt>
      <trkpt lat="45.36489" lon="5.79257">
        <ele>957</ele>
        <time>2015-01-25T09:27:08Z</time>
      </trkpt>
      <trkpt lat="45.36504" lon="5.79272">
        <ele>959</ele>
        <time>2015-01-25T09:27:23Z</time>
      </trkpt>
      <trkpt lat="45.36525" lon="5.79303">
        <ele>961</ele>
        <time>2015-01-25T09:27:58Z</time>
      </trkpt>
      <trkpt lat="45.36528" lon="5.79313">
        <ele>961</ele>
        <time>2015-01-25T09:28:07Z</time>
      </trkpt>
      <trkpt lat="45.36541" lon="5.7933">
        <ele>962</ele>
        <time>2015-01-25T09:28:23Z</time>
      </trkpt>
      <trkpt lat="45.36561" lon="5.79334">
        <ele>965</ele>
        <time>2015-01-25T09:28:43Z</time>
      </trkpt>
      <trkpt lat="45.36591" lon="5.79345">
        <ele>968</ele>
        <time>2015-01-25T09:29:16Z</time>
      </trkpt>
      <trkpt lat="45.36626" lon="5.79341">
        <ele>974</ele>
        <time>2015-01-25T09:29:45Z</time>
      </trkpt>
      <trkpt lat="45.36639" lon="5.79338">
        <ele>976</ele>
        <time>2015-01-25T09:30:06Z</time>
      </trkpt>
      <trkpt lat="45.36697" lon="5.79335">
        <ele>986</ele>
        <time>2015-01-25T09:33:11Z</time>
      </trkpt>
      <trkpt lat="45.36718" lon="5.79333">
        <ele>990</ele>
        <time>2015-01-25T09:33:22Z</time>
      </trkpt>
      <trkpt lat="45.36738" lon="5.79329">
        <ele>993</ele>
        <time>2015-01-25T09:33:32Z</time>
      </trkpt>
      <trkpt lat="45.36757" lon="5.79332">
        <ele>996</ele>
        <time>2015-01-25T09:33:52Z</time>
      </trkpt>
      <trkpt lat="45.36775" lon="5.79343">
        <ele>1000</ele>
        <time>2015-01-25T09:34:16Z</time>
      </trkpt>
      <trkpt lat="45.36854" lon="5.7937">
        <ele>1018</ele>
        <time>2015-01-25T09:35:57Z</time>
      </trkpt>
      <trkpt lat="45.36874" lon="5.79371">
        <ele>1022</ele>
        <time>2015-01-25T09:36:11Z</time>
      </trkpt>
      <trkpt lat="45.36896" lon="5.7937">
        <ele>1027</ele>
        <time>2015-01-25T09:36:31Z</time>
      </trkpt>
      <trkpt lat="45.36919" lon="5.79368">
        <ele>1031</ele>
        <time>2015-01-25T09:36:52Z</time>
      </trkpt>
      <trkpt lat="45.36944" lon="5.79367">
        <ele>1037</ele>
        <time>2015-01-25T09:37:21Z</time>
      </trkpt>
      <trkpt lat="45.36948" lon="5.79367">
        <ele>1038</ele>
        <time>2015-01-25T09:37:41Z</time>
      </trkpt>
      <trkpt lat="45.36987" lon="5.79359">
        <ele>1047</ele>
        <time>2015-01-25T09:38:26Z</time>
      </trkpt>
      <trkpt lat="45.36993" lon="5.79356">
        <ele>1048</ele>
        <time>2015-01-25T09:38:56Z</time>
      </trkpt>
      <trkpt lat="45.36994" lon="5.79356">
        <ele>1048</ele>
        <time>2015-01-25T09:39:16Z</time>
      </trkpt>
      <trkpt lat="45.37037" lon="5.79323">
        <ele>1056</ele>
        <time>2015-01-25T09:39:51Z</time>
      </trkpt>
      <trkpt lat="45.37062" lon="5.79307">
        <ele>1065</ele>
        <time>2015-01-25T09:40:11Z</time>
      </trkpt>
      <trkpt lat="45.37071" lon="5.79297">
        <ele>1068</ele>
        <time>2015-01-25T09:40:51Z</time>
      </trkpt>
      <trkpt lat="45.3711" lon="5.79283">
        <ele>1076</ele>
        <time>2015-01-25T09:42:07Z</time>
      </trkpt>
      <trkpt lat="45.37133" lon="5.79286">
        <ele>1079</ele>
        <time>2015-01-25T09:42:17Z</time>
      </trkpt>
      <trkpt lat="45.37246" lon="5.79321">
        <ele>1096</ele>
        <time>2015-01-25T09:45:01Z</time>
      </trkpt>
      <trkpt lat="45.37273" lon="5.79344">
        <ele>1103</ele>
        <time>2015-01-25T09:45:36Z</time>
      </trkpt>
      <trkpt lat="45.37285" lon="5.79358">
        <ele>1106</ele>
        <time>2015-01-25T09:45:51Z</time>
      </trkpt>
      <trkpt lat="45.37327" lon="5.79401">
        <ele>1116</ele>
        <time>2015-01-25T09:46:51Z</time>
      </trkpt>
      <trkpt lat="45.37336" lon="5.79409">
        <ele>1118</ele>
        <time>2015-01-25T09:47:06Z</time>
      </trkpt>
      <trkpt lat="45.37342" lon="5.79417">
        <ele>1120</ele>
        <time>2015-01-25T09:47:21Z</time>
      </trkpt>
      <trkpt lat="45.37358" lon="5.79447">
        <ele>1126</ele>
        <time>2015-01-25T09:48:02Z</time>
      </trkpt>
      <trkpt lat="45.3737" lon="5.79451">
        <ele>1128</ele>
        <time>2015-01-25T09:48:16Z</time>
      </trkpt>
      <trkpt lat="45.37382" lon="5.79459">
        <ele>1131</ele>
        <time>2015-01-25T09:48:21Z</time>
      </trkpt>
      <trkpt lat="45.37392" lon="5.79459">
        <ele>1132</ele>
        <time>2015-01-25T09:48:42Z</time>
      </trkpt>
      <trkpt lat="45.37404" lon="5.79461">
        <ele>1134</ele>
        <time>2015-01-25T09:48:56Z</time>
      </trkpt>
      <trkpt lat="45.37423" lon="5.79457">
        <ele>1137</ele>
        <time>2015-01-25T09:49:21Z</time>
      </trkpt>
      <trkpt lat="45.3745" lon="5.79466">
        <ele>1143</ele>
        <time>2015-01-25T09:49:51Z</time>
      </trkpt>
      <trkpt lat="45.37468" lon="5.79476">
        <ele>1146</ele>
        <time>2015-01-25T09:50:07Z</time>
      </trkpt>
      <trkpt lat="45.3749" lon="5.79516">
        <ele>1144</ele>
        <time>2015-01-25T09:50:52Z</time>
      </trkpt>
      <trkpt lat="45.3755" lon="5.79566">
        <ele>1157</ele>
        <time>2015-01-25T09:52:19Z</time>
      </trkpt>
      <trkpt lat="45.37549" lon="5.79553">
        <ele>1158</ele>
        <time>2015-01-25T09:53:15Z</time>
      </trkpt>
      <trkpt lat="45.3755" lon="5.79554">
        <ele>1158</ele>
        <time>2015-01-25T09:53:36Z</time>
      </trkpt>
      <trkpt lat="45.3755" lon="5.79554">
        <ele>1158</ele>
        <time>2015-01-25T09:53:55Z</time>
      </trkpt>
      <trkpt lat="45.37566" lon="5.79588">
        <ele>1157</ele>
        <time>2015-01-25T09:54:17Z</time>
      </trkpt>
      <trkpt lat="45.37574" lon="5.7962">
        <ele>1157</ele>
        <time>2015-01-25T09:54:26Z</time>
      </trkpt>
      <trkpt lat="45.37575" lon="5.79613">
        <ele>1157</ele>
        <time>2015-01-25T09:54:58Z</time>
      </trkpt>
      <trkpt lat="45.37579" lon="5.79657">
        <ele>1157</ele>
        <time>2015-01-25T09:55:38Z</time>
      </trkpt>
      <trkpt lat="45.37606" lon="5.79666">
        <ele>1158</ele>
        <time>2015-01-25T09:55:48Z</time>
      </trkpt>
      <trkpt lat="45.37619" lon="5.79681">
        <ele>1161</ele>
        <time>2015-01-25T09:56:18Z</time>
      </trkpt>
      <trkpt lat="45.37619" lon="5.79688">
        <ele>1162</ele>
        <time>2015-01-25T09:56:28Z</time>
      </trkpt>
      <trkpt lat="45.37637" lon="5.79704">
        <ele>1164</ele>
        <time>2015-01-25T09:56:38Z</time>
      </trkpt>
      <trkpt lat="45.37643" lon="5.79737">
        <ele>1168</ele>
        <time>2015-01-25T09:57:38Z</time>
      </trkpt>
      <trkpt lat="45.37646" lon="5.79754">
        <ele>1172</ele>
        <time>2015-01-25T09:57:58Z</time>
      </trkpt>
      <trkpt lat="45.37657" lon="5.79781">
        <ele>1178</ele>
        <time>2015-01-25T09:58:18Z</time>
      </trkpt>
      <trkpt lat="45.37676" lon="5.79812">
        <ele>1184</ele>
        <time>2015-01-25T09:59:08Z</time>
      </trkpt>
      <trkpt lat="45.37683" lon="5.79822">
        <ele>1186</ele>
        <time>2015-01-25T09:59:18Z</time>
      </trkpt>
      <trkpt lat="45.377" lon="5.79834">
        <ele>1188</ele>
        <time>2015-01-25T09:59:48Z</time>
      </trkpt>
      <trkpt lat="45.37713" lon="5.79847">
        <ele>1190</ele>
        <time>2015-01-25T10:00:13Z</time>
      </trkpt>
      <trkpt lat="45.37719" lon="5.79851">
        <ele>1191</ele>
        <time>2015-01-25T10:00:18Z</time>
      </trkpt>
      <trkpt lat="45.37732" lon="5.79869">
        <ele>1194</ele>
        <time>2015-01-25T10:00:38Z</time>
      </trkpt>
      <trkpt lat="45.37741" lon="5.7988">
        <ele>1196</ele>
        <time>2015-01-25T10:00:58Z</time>
      </trkpt>
      <trkpt lat="45.37744" lon="5.79879">
        <ele>1195</ele>
        <time>2015-01-25T10:01:18Z</time>
      </trkpt>
      <trkpt lat="45.3775" lon="5.79892">
        <ele>1198</ele>
        <time>2015-01-25T10:01:28Z</time>
      </trkpt>
      <trkpt lat="45.37773" lon="5.79897">
        <ele>1199</ele>
        <time>2015-01-25T10:02:02Z</time>
      </trkpt>
      <trkpt lat="45.37775" lon="5.79897">
        <ele>1199</ele>
        <time>2015-01-25T10:02:23Z</time>
      </trkpt>
      <trkpt lat="45.37794" lon="5.79906">
        <ele>1202</ele>
        <time>2015-01-25T10:02:33Z</time>
      </trkpt>
      <trkpt lat="45.37809" lon="5.79922">
        <ele>1206</ele>
        <time>2015-01-25T10:02:43Z</time>
      </trkpt>
      <trkpt lat="45.37827" lon="5.79923">
        <ele>1207</ele>
        <time>2015-01-25T10:02:53Z</time>
      </trkpt>
      <trkpt lat="45.37846" lon="5.79929">
        <ele>1210</ele>
        <time>2015-01-25T10:03:08Z</time>
      </trkpt>
      <trkpt lat="45.37859" lon="5.79938">
        <ele>1214</ele>
        <time>2015-01-25T10:04:18Z</time>
      </trkpt>
      <trkpt lat="45.37866" lon="5.79943">
        <ele>1217</ele>
        <time>2015-01-25T10:04:23Z</time>
      </trkpt>
      <trkpt lat="45.3789" lon="5.79952">
        <ele>1224</ele>
        <time>2015-01-25T10:04:42Z</time>
      </trkpt>
      <trkpt lat="45.3791" lon="5.79957">
        <ele>1229</ele>
        <time>2015-01-25T10:04:58Z</time>
      </trkpt>
      <trkpt lat="45.37925" lon="5.7997">
        <ele>1235</ele>
        <time>2015-01-25T10:05:38Z</time>
      </trkpt>
      <trkpt lat="45.37948" lon="5.79987">
        <ele>1242</ele>
        <time>2015-01-25T10:06:08Z</time>
      </trkpt>
      <trkpt lat="45.37978" lon="5.8003">
        <ele>1254</ele>
        <time>2015-01-25T10:08:23Z</time>
      </trkpt>
      <trkpt lat="45.37978" lon="5.8003">
        <ele>1254</ele>
        <time>2015-01-25T10:08:42Z</time>
      </trkpt>
      <trkpt lat="45.37978" lon="5.8003">
        <ele>1254</ele>
        <time>2015-01-25T10:08:54Z</time>
      </trkpt>
      <trkpt lat="45.37978" lon="5.8003">
        <ele>1254</ele>
        <time>2015-01-25T10:09:21Z</time>
      </trkpt>
      <trkpt lat="45.37974" lon="5.80063">
        <ele>1260</ele>
        <time>2015-01-25T10:14:43Z</time>
      </trkpt>
      <trkpt lat="45.37975" lon="5.80064">
        <ele>1260</ele>
        <time>2015-01-25T10:15:03Z</time>
      </trkpt>
      <trkpt lat="45.37975" lon="5.80065">
        <ele>1260</ele>
        <time>2015-01-25T10:15:18Z</time>
      </trkpt>
      <trkpt lat="45.37976" lon="5.80066">
        <ele>1260</ele>
        <time>2015-01-25T10:15:40Z</time>
      </trkpt>
      <trkpt lat="45.37988" lon="5.80253">
        <ele>1299</ele>
        <time>2015-01-25T10:16:51Z</time>
      </trkpt>
      <trkpt lat="45.38" lon="5.80279">
        <ele>1304</ele>
        <time>2015-01-25T10:17:16Z</time>
      </trkpt>
      <trkpt lat="45.38" lon="5.80309">
        <ele>1314</ele>
        <time>2015-01-25T10:17:36Z</time>
      </trkpt>
      <trkpt lat="45.38012" lon="5.80326">
        <ele>1317</ele>
        <time>2015-01-25T10:17:56Z</time>
      </trkpt>
      <trkpt lat="45.38017" lon="5.80329">
        <ele>1317</ele>
        <time>2015-01-25T10:18:16Z</time>
      </trkpt>
      <trkpt lat="45.38025" lon="5.80344">
        <ele>1321</ele>
        <time>2015-01-25T10:18:35Z</time>
      </trkpt>
      <trkpt lat="45.38028" lon="5.80351">
        <ele>1322</ele>
        <time>2015-01-25T10:18:50Z</time>
      </trkpt>
      <trkpt lat="45.38048" lon="5.8039">
        <ele>1337</ele>
        <time>2015-01-25T10:19:42Z</time>
      </trkpt>
      <trkpt lat="45.38055" lon="5.80393">
        <ele>1337</ele>
        <time>2015-01-25T10:19:56Z</time>
      </trkpt>
      <trkpt lat="45.38054" lon="5.80393">
        <ele>1338</ele>
        <time>2015-01-25T10:20:15Z</time>
      </trkpt>
      <trkpt lat="45.3806" lon="5.80426">
        <ele>1352</ele>
        <time>2015-01-25T10:32:52Z</time>
      </trkpt>
      <trkpt lat="45.38222" lon="5.80845">
        <ele>1506</ele>
        <time>2015-01-25T10:48:37Z</time>
      </trkpt>
      <trkpt lat="45.38204" lon="5.80941">
        <ele>1531</ele>
        <time>2015-01-25T10:57:08Z</time>
      </trkpt>
      <trkpt lat="45.38192" lon="5.81037">
        <ele>1593</ele>
        <time>2015-01-25T10:57:16Z</time>
      </trkpt>
      <trkpt lat="45.38182" lon="5.8104">
        <ele>1589</ele>
        <time>2015-01-25T10:57:42Z</time>
      </trkpt>
      <trkpt lat="45.38186" lon="5.81058">
        <ele>1602</ele>
        <time>2015-01-25T10:58:02Z</time>
      </trkpt>
      <trkpt lat="45.38178" lon="5.81063">
        <ele>1600</ele>
        <time>2015-01-25T10:58:12Z</time>
      </trkpt>
      <trkpt lat="45.38172" lon="5.81079">
        <ele>1609</ele>
        <time>2015-01-25T10:58:38Z</time>
      </trkpt>
      <trkpt lat="45.38171" lon="5.81095">
        <ele>1618</ele>
        <time>2015-01-25T11:03:33Z</time>
      </trkpt>
      <trkpt lat="45.38172" lon="5.81096">
        <ele>1618</ele>
        <time>2015-01-25T11:03:53Z</time>
      </trkpt>
      <trkpt lat="45.38172" lon="5.81096">
        <ele>1618</ele>
        <time>2015-01-25T11:04:09Z</time>
      </trkpt>
      <trkpt lat="45.38173" lon="5.81098">
        <ele>1620</ele>
        <time>2015-01-25T11:04:30Z</time>
      </trkpt>
      <trkpt lat="45.38173" lon="5.81099">
        <ele>1620</ele>
        <time>2015-01-25T11:04:49Z</time>
      </trkpt>
      <trkpt lat="45.38174" lon="5.81154">
        <ele>1620</ele>
        <time>2015-01-25T11:08:23Z</time>
      </trkpt>
      <trkpt lat="45.38192" lon="5.81157">
        <ele>1629</ele>
        <time>2015-01-25T11:08:35Z</time>
      </trkpt>
      <trkpt lat="45.38213" lon="5.81158">
        <ele>1639</ele>
        <time>2015-01-25T11:08:51Z</time>
      </trkpt>
      <trkpt lat="45.38231" lon="5.81169">
        <ele>1647</ele>
        <time>2015-01-25T11:09:11Z</time>
      </trkpt>
      <trkpt lat="45.38233" lon="5.81174">
        <ele>1647</ele>
        <time>2015-01-25T11:09:25Z</time>
      </trkpt>
      <trkpt lat="45.38234" lon="5.81174">
        <ele>1647</ele>
        <time>2015-01-25T11:09:46Z</time>
      </trkpt>
      <trkpt lat="45.38234" lon="5.81175">
        <ele>1647</ele>
        <time>2015-01-25T11:10:09Z</time>
      </trkpt>
      <trkpt lat="45.38224" lon="5.81258">
        <ele>1624</ele>
        <time>2015-01-25T11:52:34Z</time>
      </trkpt>
      <trkpt lat="45.38224" lon="5.81256">
        <ele>1624</ele>
        <time>2015-01-25T11:53:00Z</time>
      </trkpt>
      <trkpt lat="45.38224" lon="5.81257">
        <ele>1624</ele>
        <time>2015-01-25T11:53:19Z</time>
      </trkpt>
      <trkpt lat="45.38221" lon="5.8125">
        <ele>1622</ele>
        <time>2015-01-25T11:53:39Z</time>
      </trkpt>
      <trkpt lat="45.38178" lon="5.81097">
        <ele>1620</ele>
        <time>2015-01-25T11:55:44Z</time>
      </trkpt>
      <trkpt lat="45.38177" lon="5.81082">
        <ele>1611</ele>
        <time>2015-01-25T11:56:04Z</time>
      </trkpt>
      <trkpt lat="45.38179" lon="5.81065">
        <ele>1602</ele>
        <time>2015-01-25T11:56:24Z</time>
      </trkpt>
      <trkpt lat="45.38173" lon="5.81017">
        <ele>1568</ele>
        <time>2015-01-25T11:56:29Z</time>
      </trkpt>
      <trkpt lat="45.38164" lon="5.80998">
        <ele>1556</ele>
        <time>2015-01-25T11:57:01Z</time>
      </trkpt>
      <trkpt lat="45.38155" lon="5.80955">
        <ele>1530</ele>
        <time>2015-01-25T11:58:01Z</time>
      </trkpt>
      <trkpt lat="45.38173" lon="5.80878">
        <ele>1493</ele>
        <time>2015-01-25T12:00:52Z</time>
      </trkpt>
      <trkpt lat="45.3818" lon="5.80876">
        <ele>1494</ele>
        <time>2015-01-25T12:02:25Z</time>
      </trkpt>
      <trkpt lat="45.3818" lon="5.80876">
        <ele>1494</ele>
        <time>2015-01-25T12:03:02Z</time>
      </trkpt>
      <trkpt lat="45.38154" lon="5.80667">
        <ele>1446</ele>
        <time>2015-01-25T12:05:20Z</time>
      </trkpt>
      <trkpt lat="45.38117" lon="5.80474">
        <ele>1372</ele>
        <time>2015-01-25T12:09:09Z</time>
      </trkpt>
      <trkpt lat="45.38136" lon="5.80472">
        <ele>1374</ele>
        <time>2015-01-25T12:09:14Z</time>
      </trkpt>
      <trkpt lat="45.38167" lon="5.80452">
        <ele>1372</ele>
        <time>2015-01-25T12:09:23Z</time>
      </trkpt>
      <trkpt lat="45.38192" lon="5.80415">
        <ele>1366</ele>
        <time>2015-01-25T12:09:34Z</time>
      </trkpt>
      <trkpt lat="45.38215" lon="5.80333">
        <ele>1350</ele>
        <time>2015-01-25T12:09:43Z</time>
      </trkpt>
      <trkpt lat="45.38209" lon="5.80289">
        <ele>1337</ele>
        <time>2015-01-25T12:09:52Z</time>
      </trkpt>
      <trkpt lat="45.38211" lon="5.80257">
        <ele>1334</ele>
        <time>2015-01-25T12:09:57Z</time>
      </trkpt>
      <trkpt lat="45.38208" lon="5.80217">
        <ele>1327</ele>
        <time>2015-01-25T12:10:02Z</time>
      </trkpt>
      <trkpt lat="45.38207" lon="5.80209">
        <ele>1325</ele>
        <time>2015-01-25T12:10:22Z</time>
      </trkpt>
      <trkpt lat="45.38212" lon="5.80206">
        <ele>1328</ele>
        <time>2015-01-25T12:10:43Z</time>
      </trkpt>
      <trkpt lat="45.38212" lon="5.80173">
        <ele>1325</ele>
        <time>2015-01-25T12:12:05Z</time>
      </trkpt>
      <trkpt lat="45.38223" lon="5.80133">
        <ele>1329</ele>
        <time>2015-01-25T12:12:14Z</time>
      </trkpt>
      <trkpt lat="45.38223" lon="5.80123">
        <ele>1329</ele>
        <time>2015-01-25T12:13:34Z</time>
      </trkpt>
      <trkpt lat="45.38223" lon="5.80123">
        <ele>1329</ele>
        <time>2015-01-25T12:13:57Z</time>
      </trkpt>
      <trkpt lat="45.38229" lon="5.80083">
        <ele>1333</ele>
        <time>2015-01-25T12:24:51Z</time>
      </trkpt>
      <trkpt lat="45.38233" lon="5.80063">
        <ele>1335</ele>
        <time>2015-01-25T12:26:00Z</time>
      </trkpt>
      <trkpt lat="45.38233" lon="5.80062">
        <ele>1335</ele>
        <time>2015-01-25T12:26:30Z</time>
      </trkpt>
      <trkpt lat="45.38217" lon="5.8003">
        <ele>1329</ele>
        <time>2015-01-25T12:27:05Z</time>
      </trkpt>
      <trkpt lat="45.38216" lon="5.80015">
        <ele>1330</ele>
        <time>2015-01-25T12:27:40Z</time>
      </trkpt>
      <trkpt lat="45.38215" lon="5.80013">
        <ele>1329</ele>
        <time>2015-01-25T12:28:06Z</time>
      </trkpt>
      <trkpt lat="45.38215" lon="5.80013">
        <ele>1329</ele>
        <time>2015-01-25T12:28:30Z</time>
      </trkpt>
      <trkpt lat="45.38214" lon="5.7995">
        <ele>1332</ele>
        <time>2015-01-25T12:29:01Z</time>
      </trkpt>
      <trkpt lat="45.38226" lon="5.79967">
        <ele>1336</ele>
        <time>2015-01-25T12:32:56Z</time>
      </trkpt>
      <trkpt lat="45.38243" lon="5.79996">
        <ele>1342</ele>
        <time>2015-01-25T12:33:01Z</time>
      </trkpt>
      <trkpt lat="45.38257" lon="5.79995">
        <ele>1347</ele>
        <time>2015-01-25T12:33:40Z</time>
      </trkpt>
      <trkpt lat="45.38257" lon="5.79992">
        <ele>1348</ele>
        <time>2015-01-25T12:33:50Z</time>
      </trkpt>
      <trkpt lat="45.38276" lon="5.7998">
        <ele>1355</ele>
        <time>2015-01-25T12:34:36Z</time>
      </trkpt>
      <trkpt lat="45.38287" lon="5.79937">
        <ele>1358</ele>
        <time>2015-01-25T12:34:56Z</time>
      </trkpt>
      <trkpt lat="45.383" lon="5.79928">
        <ele>1361</ele>
        <time>2015-01-25T12:35:15Z</time>
      </trkpt>
      <trkpt lat="45.38315" lon="5.799">
        <ele>1363</ele>
        <time>2015-01-25T12:36:05Z</time>
      </trkpt>
      <trkpt lat="45.38334" lon="5.79907">
        <ele>1368</ele>
        <time>2015-01-25T12:36:20Z</time>
      </trkpt>
      <trkpt lat="45.38348" lon="5.79906">
        <ele>1371</ele>
        <time>2015-01-25T12:36:50Z</time>
      </trkpt>
      <trkpt lat="45.38358" lon="5.79912">
        <ele>1374</ele>
        <time>2015-01-25T12:36:56Z</time>
      </trkpt>
      <trkpt lat="45.38372" lon="5.79906">
        <ele>1376</ele>
        <time>2015-01-25T12:37:20Z</time>
      </trkpt>
      <trkpt lat="45.3838" lon="5.79907">
        <ele>1378</ele>
        <time>2015-01-25T12:37:30Z</time>
      </trkpt>
      <trkpt lat="45.3839" lon="5.79898">
        <ele>1378</ele>
        <time>2015-01-25T12:38:05Z</time>
      </trkpt>
      <trkpt lat="45.38402" lon="5.79895">
        <ele>1381</ele>
        <time>2015-01-25T12:38:26Z</time>
      </trkpt>
      <trkpt lat="45.38427" lon="5.79898">
        <ele>1387</ele>
        <time>2015-01-25T12:38:40Z</time>
      </trkpt>
      <trkpt lat="45.38449" lon="5.79904">
        <ele>1393</ele>
        <time>2015-01-25T12:38:55Z</time>
      </trkpt>
      <trkpt lat="45.3847" lon="5.79892">
        <ele>1395</ele>
        <time>2015-01-25T12:39:10Z</time>
      </trkpt>
      <trkpt lat="45.38485" lon="5.79887">
        <ele>1398</ele>
        <time>2015-01-25T12:39:40Z</time>
      </trkpt>
      <trkpt lat="45.38489" lon="5.79883">
        <ele>1397</ele>
        <time>2015-01-25T12:39:45Z</time>
      </trkpt>
      <trkpt lat="45.38493" lon="5.79883">
        <ele>1398</ele>
        <time>2015-01-25T12:40:05Z</time>
      </trkpt>
      <trkpt lat="45.38514" lon="5.79871">
        <ele>1400</ele>
        <time>2015-01-25T12:40:26Z</time>
      </trkpt>
      <trkpt lat="45.3854" lon="5.79865">
        <ele>1403</ele>
        <time>2015-01-25T12:40:40Z</time>
      </trkpt>
      <trkpt lat="45.38561" lon="5.7986">
        <ele>1406</ele>
        <time>2015-01-25T12:40:50Z</time>
      </trkpt>
      <trkpt lat="45.3857" lon="5.79858">
        <ele>1407</ele>
        <time>2015-01-25T12:41:20Z</time>
      </trkpt>
      <trkpt lat="45.38582" lon="5.79849">
        <ele>1407</ele>
        <time>2015-01-25T12:41:30Z</time>
      </trkpt>
      <trkpt lat="45.38611" lon="5.79845">
        <ele>1408</ele>
        <time>2015-01-25T12:42:06Z</time>
      </trkpt>
      <trkpt lat="45.38628" lon="5.79837">
        <ele>1406</ele>
        <time>2015-01-25T12:42:15Z</time>
      </trkpt>
      <trkpt lat="45.38634" lon="5.79806">
        <ele>1402</ele>
        <time>2015-01-25T12:44:30Z</time>
      </trkpt>
      <trkpt lat="45.38634" lon="5.79801">
        <ele>1401</ele>
        <time>2015-01-25T12:44:50Z</time>
      </trkpt>
      <trkpt lat="45.38634" lon="5.79801">
        <ele>1401</ele>
        <time>2015-01-25T12:45:15Z</time>
      </trkpt>
      <trkpt lat="45.38634" lon="5.79801">
        <ele>1401</ele>
        <time>2015-01-25T12:45:35Z</time>
      </trkpt>
      <trkpt lat="45.38652" lon="5.79713">
        <ele>1402</ele>
        <time>2015-01-25T12:47:31Z</time>
      </trkpt>
      <trkpt lat="45.38694" lon="5.79615">
        <ele>1406</ele>
        <time>2015-01-25T12:48:46Z</time>
      </trkpt>
      <trkpt lat="45.38702" lon="5.79572">
        <ele>1413</ele>
        <time>2015-01-25T12:49:02Z</time>
      </trkpt>
      <trkpt lat="45.38718" lon="5.79535">
        <ele>1417</ele>
        <time>2015-01-25T12:49:46Z</time>
      </trkpt>
      <trkpt lat="45.38719" lon="5.79535">
        <ele>1416</ele>
        <time>2015-01-25T12:49:57Z</time>
      </trkpt>
      <trkpt lat="45.3872" lon="5.79534">
        <ele>1416</ele>
        <time>2015-01-25T12:50:42Z</time>
      </trkpt>
      <trkpt lat="45.38768" lon="5.79484">
        <ele>1426</ele>
        <time>2015-01-25T12:51:54Z</time>
      </trkpt>
      <trkpt lat="45.38789" lon="5.7946">
        <ele>1432</ele>
        <time>2015-01-25T12:52:00Z</time>
      </trkpt>
      <trkpt lat="45.3881" lon="5.79456">
        <ele>1432</ele>
        <time>2015-01-25T12:52:12Z</time>
      </trkpt>
      <trkpt lat="45.3883" lon="5.79455">
        <ele>1432</ele>
        <time>2015-01-25T12:52:24Z</time>
      </trkpt>
      <trkpt lat="45.3885" lon="5.79452">
        <ele>1433</ele>
        <time>2015-01-25T12:52:36Z</time>
      </trkpt>
      <trkpt lat="45.38868" lon="5.79454">
        <ele>1431</ele>
        <time>2015-01-25T12:52:46Z</time>
      </trkpt>
      <trkpt lat="45.38891" lon="5.79461">
        <ele>1427</ele>
        <time>2015-01-25T12:53:01Z</time>
      </trkpt>
      <trkpt lat="45.38907" lon="5.7946">
        <ele>1428</ele>
        <time>2015-01-25T12:53:19Z</time>
      </trkpt>
      <trkpt lat="45.38913" lon="5.7946">
        <ele>1428</ele>
        <time>2015-01-25T12:53:27Z</time>
      </trkpt>
      <trkpt lat="45.38932" lon="5.79453">
        <ele>1432</ele>
        <time>2015-01-25T12:53:57Z</time>
      </trkpt>
      <trkpt lat="45.38932" lon="5.79453">
        <ele>1432</ele>
        <time>2015-01-25T12:54:21Z</time>
      </trkpt>
      <trkpt lat="45.39003" lon="5.79471">
        <ele>1418</ele>
        <time>2015-01-25T12:56:41Z</time>
      </trkpt>
      <trkpt lat="45.39034" lon="5.79469">
        <ele>1418</ele>
        <time>2015-01-25T12:57:00Z</time>
      </trkpt>
      <trkpt lat="45.3904" lon="5.79464">
        <ele>1420</ele>
        <time>2015-01-25T12:57:30Z</time>
      </trkpt>
      <trkpt lat="45.39064" lon="5.7942">
        <ele>1431</ele>
        <time>2015-01-25T12:57:50Z</time>
      </trkpt>
      <trkpt lat="45.39073" lon="5.79392">
        <ele>1436</ele>
        <time>2015-01-25T12:57:56Z</time>
      </trkpt>
      <trkpt lat="45.39061" lon="5.79323">
        <ele>1428</ele>
        <time>2015-01-25T12:58:05Z</time>
      </trkpt>
      <trkpt lat="45.39044" lon="5.79266">
        <ele>1421</ele>
        <time>2015-01-25T12:58:59Z</time>
      </trkpt>
      <trkpt lat="45.39044" lon="5.79242">
        <ele>1417</ele>
        <time>2015-01-25T13:00:05Z</time>
      </trkpt>
      <trkpt lat="45.39029" lon="5.79211">
        <ele>1416</ele>
        <time>2015-01-25T13:00:14Z</time>
      </trkpt>
      <trkpt lat="45.39021" lon="5.79199">
        <ele>1415</ele>
        <time>2015-01-25T13:00:34Z</time>
      </trkpt>
      <trkpt lat="45.39" lon="5.79185">
        <ele>1417</ele>
        <time>2015-01-25T13:00:49Z</time>
      </trkpt>
      <trkpt lat="45.38971" lon="5.79159">
        <ele>1429</ele>
        <time>2015-01-25T13:00:59Z</time>
      </trkpt>
      <trkpt lat="45.38961" lon="5.79131">
        <ele>1429</ele>
        <time>2015-01-25T13:01:20Z</time>
      </trkpt>
      <trkpt lat="45.38931" lon="5.79089">
        <ele>1434</ele>
        <time>2015-01-25T13:01:44Z</time>
      </trkpt>
      <trkpt lat="45.38922" lon="5.79065">
        <ele>1433</ele>
        <time>2015-01-25T13:02:04Z</time>
      </trkpt>
      <trkpt lat="45.38919" lon="5.79044">
        <ele>1431</ele>
        <time>2015-01-25T13:02:55Z</time>
      </trkpt>
      <trkpt lat="45.38883" lon="5.79023">
        <ele>1438</ele>
        <time>2015-01-25T13:03:55Z</time>
      </trkpt>
      <trkpt lat="45.38869" lon="5.78998">
        <ele>1437</ele>
        <time>2015-01-25T13:04:09Z</time>
      </trkpt>
      <trkpt lat="45.38854" lon="5.78961">
        <ele>1433</ele>
        <time>2015-01-25T13:04:14Z</time>
      </trkpt>
      <trkpt lat="45.38834" lon="5.78947">
        <ele>1434</ele>
        <time>2015-01-25T13:04:49Z</time>
      </trkpt>
      <trkpt lat="45.38809" lon="5.7891">
        <ele>1429</ele>
        <time>2015-01-25T13:05:44Z</time>
      </trkpt>
      <trkpt lat="45.38746" lon="5.78837">
        <ele>1429</ele>
        <time>2015-01-25T13:07:52Z</time>
      </trkpt>
      <trkpt lat="45.38731" lon="5.78822">
        <ele>1432</ele>
        <time>2015-01-25T13:08:15Z</time>
      </trkpt>
      <trkpt lat="45.3871" lon="5.78813">
        <ele>1438</ele>
        <time>2015-01-25T13:08:40Z</time>
      </trkpt>
      <trkpt lat="45.38673" lon="5.78801">
        <ele>1452</ele>
        <time>2015-01-25T13:09:21Z</time>
      </trkpt>
      <trkpt lat="45.38646" lon="5.78805">
        <ele>1460</ele>
        <time>2015-01-25T13:09:55Z</time>
      </trkpt>
      <trkpt lat="45.3857" lon="5.78779">
        <ele>1481</ele>
        <time>2015-01-25T13:11:30Z</time>
      </trkpt>
      <trkpt lat="45.38519" lon="5.78758">
        <ele>1489</ele>
        <time>2015-01-25T13:12:29Z</time>
      </trkpt>
      <trkpt lat="45.38468" lon="5.78745">
        <ele>1496</ele>
        <time>2015-01-25T13:13:44Z</time>
      </trkpt>
      <trkpt lat="45.3841" lon="5.78733">
        <ele>1501</ele>
        <time>2015-01-25T13:14:54Z</time>
      </trkpt>
      <trkpt lat="45.38387" lon="5.78735">
        <ele>1501</ele>
        <time>2015-01-25T13:15:10Z</time>
      </trkpt>
      <trkpt lat="45.3837" lon="5.78727">
        <ele>1501</ele>
        <time>2015-01-25T13:15:44Z</time>
      </trkpt>
      <trkpt lat="45.38346" lon="5.78714">
        <ele>1501</ele>
        <time>2015-01-25T13:16:19Z</time>
      </trkpt>
      <trkpt lat="45.38331" lon="5.78709">
        <ele>1500</ele>
        <time>2015-01-25T13:17:00Z</time>
      </trkpt>
      <trkpt lat="45.38322" lon="5.78698">
        <ele>1500</ele>
        <time>2015-01-25T13:17:20Z</time>
      </trkpt>
      <trkpt lat="45.38323" lon="5.78687">
        <ele>1503</ele>
        <time>2015-01-25T13:17:56Z</time>
      </trkpt>
      <trkpt lat="45.38321" lon="5.78682">
        <ele>1503</ele>
        <time>2015-01-25T13:18:14Z</time>
      </trkpt>
      <trkpt lat="45.38295" lon="5.78684">
        <ele>1498</ele>
        <time>2015-01-25T13:26:42Z</time>
      </trkpt>
      <trkpt lat="45.38281" lon="5.78661">
        <ele>1498</ele>
        <time>2015-01-25T13:26:51Z</time>
      </trkpt>
      <trkpt lat="45.38263" lon="5.78651">
        <ele>1494</ele>
        <time>2015-01-25T13:26:56Z</time>
      </trkpt>
      <trkpt lat="45.38244" lon="5.78628">
        <ele>1492</ele>
        <time>2015-01-25T13:27:07Z</time>
      </trkpt>
      <trkpt lat="45.3825" lon="5.78632">
        <ele>1493</ele>
        <time>2015-01-25T13:27:21Z</time>
      </trkpt>
      <trkpt lat="45.3825" lon="5.78632">
        <ele>1493</ele>
        <time>2015-01-25T13:27:37Z</time>
      </trkpt>
      <trkpt lat="45.38196" lon="5.78597">
        <ele>1481</ele>
        <time>2015-01-25T13:29:46Z</time>
      </trkpt>
      <trkpt lat="45.38159" lon="5.786">
        <ele>1466</ele>
        <time>2015-01-25T13:29:51Z</time>
      </trkpt>
      <trkpt lat="45.38143" lon="5.78581">
        <ele>1461</ele>
        <time>2015-01-25T13:29:57Z</time>
      </trkpt>
      <trkpt lat="45.38114" lon="5.78569">
        <ele>1449</ele>
        <time>2015-01-25T13:30:36Z</time>
      </trkpt>
      <trkpt lat="45.38114" lon="5.7857">
        <ele>1449</ele>
        <time>2015-01-25T13:31:04Z</time>
      </trkpt>
      <trkpt lat="45.37953" lon="5.78447">
        <ele>1402</ele>
        <time>2015-01-25T13:32:52Z</time>
      </trkpt>
      <trkpt lat="45.37933" lon="5.78442">
        <ele>1397</ele>
        <time>2015-01-25T13:32:58Z</time>
      </trkpt>
      <trkpt lat="45.37912" lon="5.78439">
        <ele>1391</ele>
        <time>2015-01-25T13:33:03Z</time>
      </trkpt>
      <trkpt lat="45.37889" lon="5.78435">
        <ele>1386</ele>
        <time>2015-01-25T13:33:08Z</time>
      </trkpt>
      <trkpt lat="45.3782" lon="5.78409">
        <ele>1385</ele>
        <time>2015-01-25T13:33:18Z</time>
      </trkpt>
      <trkpt lat="45.37792" lon="5.78403">
        <ele>1382</ele>
        <time>2015-01-25T13:33:23Z</time>
      </trkpt>
      <trkpt lat="45.37782" lon="5.78403">
        <ele>1380</ele>
        <time>2015-01-25T13:33:42Z</time>
      </trkpt>
      <trkpt lat="45.37782" lon="5.78403">
        <ele>1380</ele>
        <time>2015-01-25T13:33:52Z</time>
      </trkpt>
      <trkpt lat="45.37782" lon="5.78402">
        <ele>1380</ele>
        <time>2015-01-25T13:34:19Z</time>
      </trkpt>
      <trkpt lat="45.37782" lon="5.78402">
        <ele>1380</ele>
        <time>2015-01-25T13:34:38Z</time>
      </trkpt>
      <trkpt lat="45.37706" lon="5.78471">
        <ele>1334</ele>
        <time>2015-01-25T13:37:17Z</time>
      </trkpt>
      <trkpt lat="45.3766" lon="5.78491">
        <ele>1321</ele>
        <time>2015-01-25T13:37:30Z</time>
      </trkpt>
      <trkpt lat="45.37531" lon="5.78553">
        <ele>1293</ele>
        <time>2015-01-25T13:38:12Z</time>
      </trkpt>
      <trkpt lat="45.37485" lon="5.78576">
        <ele>1285</ele>
        <time>2015-01-25T13:38:17Z</time>
      </trkpt>
      <trkpt lat="45.37451" lon="5.78578">
        <ele>1281</ele>
        <time>2015-01-25T13:38:22Z</time>
      </trkpt>
      <trkpt lat="45.3742" lon="5.78557">
        <ele>1282</ele>
        <time>2015-01-25T13:40:18Z</time>
      </trkpt>
      <trkpt lat="45.37384" lon="5.7854">
        <ele>1277</ele>
        <time>2015-01-25T13:41:11Z</time>
      </trkpt>
      <trkpt lat="45.37332" lon="5.78506">
        <ele>1271</ele>
        <time>2015-01-25T13:44:42Z</time>
      </trkpt>
      <trkpt lat="45.37296" lon="5.7848">
        <ele>1267</ele>
        <time>2015-01-25T13:44:52Z</time>
      </trkpt>
      <trkpt lat="45.37278" lon="5.78462">
        <ele>1266</ele>
        <time>2015-01-25T13:45:27Z</time>
      </trkpt>
      <trkpt lat="45.37278" lon="5.78462">
        <ele>1266</ele>
        <time>2015-01-25T13:45:42Z</time>
      </trkpt>
      <trkpt lat="45.37253" lon="5.78431">
        <ele>1266</ele>
        <time>2015-01-25T13:46:23Z</time>
      </trkpt>
      <trkpt lat="45.37193" lon="5.78417">
        <ele>1250</ele>
        <time>2015-01-25T13:46:30Z</time>
      </trkpt>
      <trkpt lat="45.37157" lon="5.78398">
        <ele>1241</ele>
        <time>2015-01-25T13:46:35Z</time>
      </trkpt>
      <trkpt lat="45.37119" lon="5.7839">
        <ele>1229</ele>
        <time>2015-01-25T13:46:44Z</time>
      </trkpt>
      <trkpt lat="45.37093" lon="5.78369">
        <ele>1221</ele>
        <time>2015-01-25T13:46:54Z</time>
      </trkpt>
      <trkpt lat="45.37075" lon="5.7836">
        <ele>1215</ele>
        <time>2015-01-25T13:47:09Z</time>
      </trkpt>
      <trkpt lat="45.3703" lon="5.78355">
        <ele>1207</ele>
        <time>2015-01-25T13:47:42Z</time>
      </trkpt>
      <trkpt lat="45.37009" lon="5.78359">
        <ele>1203</ele>
        <time>2015-01-25T13:47:48Z</time>
      </trkpt>
      <trkpt lat="45.36966" lon="5.78411">
        <ele>1192</ele>
        <time>2015-01-25T13:48:01Z</time>
      </trkpt>
      <trkpt lat="45.36958" lon="5.78411">
        <ele>1191</ele>
        <time>2015-01-25T13:48:35Z</time>
      </trkpt>
      <trkpt lat="45.36959" lon="5.78409">
        <ele>1191</ele>
        <time>2015-01-25T13:48:52Z</time>
      </trkpt>
      <trkpt lat="45.36909" lon="5.78434">
        <ele>1181</ele>
        <time>2015-01-25T13:50:27Z</time>
      </trkpt>
      <trkpt lat="45.3686" lon="5.78442">
        <ele>1175</ele>
        <time>2015-01-25T13:50:33Z</time>
      </trkpt>
      <trkpt lat="45.36816" lon="5.78446">
        <ele>1169</ele>
        <time>2015-01-25T13:50:43Z</time>
      </trkpt>
      <trkpt lat="45.36769" lon="5.78438">
        <ele>1162</ele>
        <time>2015-01-25T13:50:53Z</time>
      </trkpt>
      <trkpt lat="45.36741" lon="5.78436">
        <ele>1157</ele>
        <time>2015-01-25T13:50:58Z</time>
      </trkpt>
      <trkpt lat="45.367" lon="5.78438">
        <ele>1150</ele>
        <time>2015-01-25T13:51:08Z</time>
      </trkpt>
      <trkpt lat="45.36677" lon="5.78418">
        <ele>1150</ele>
        <time>2015-01-25T13:51:14Z</time>
      </trkpt>
      <trkpt lat="45.36655" lon="5.78424">
        <ele>1145</ele>
        <time>2015-01-25T13:51:27Z</time>
      </trkpt>
      <trkpt lat="45.36631" lon="5.78438">
        <ele>1138</ele>
        <time>2015-01-25T13:56:04Z</time>
      </trkpt>
      <trkpt lat="45.36618" lon="5.78461">
        <ele>1132</ele>
        <time>2015-01-25T13:56:10Z</time>
      </trkpt>
      <trkpt lat="45.36605" lon="5.78474">
        <ele>1128</ele>
        <time>2015-01-25T13:56:20Z</time>
      </trkpt>
      <trkpt lat="45.366" lon="5.78481">
        <ele>1126</ele>
        <time>2015-01-25T13:56:26Z</time>
      </trkpt>
      <trkpt lat="45.36595" lon="5.78488">
        <ele>1124</ele>
        <time>2015-01-25T13:56:39Z</time>
      </trkpt>
      <trkpt lat="45.36578" lon="5.78498">
        <ele>1119</ele>
        <time>2015-01-25T13:56:51Z</time>
      </trkpt>
      <trkpt lat="45.36579" lon="5.78499">
        <ele>1119</ele>
        <time>2015-01-25T13:57:25Z</time>
      </trkpt>
      <trkpt lat="45.36574" lon="5.78517">
        <ele>1118</ele>
        <time>2015-01-25T13:57:45Z</time>
      </trkpt>
      <trkpt lat="45.3657" lon="5.78528">
        <ele>1117</ele>
        <time>2015-01-25T13:57:50Z</time>
      </trkpt>
      <trkpt lat="45.36558" lon="5.78542">
        <ele>1115</ele>
        <time>2015-01-25T13:58:10Z</time>
      </trkpt>
      <trkpt lat="45.36547" lon="5.7854">
        <ele>1113</ele>
        <time>2015-01-25T13:58:14Z</time>
      </trkpt>
      <trkpt lat="45.36512" lon="5.78537">
        <ele>1108</ele>
        <time>2015-01-25T13:58:25Z</time>
      </trkpt>
      <trkpt lat="45.36475" lon="5.7855">
        <ele>1102</ele>
        <time>2015-01-25T13:58:35Z</time>
      </trkpt>
      <trkpt lat="45.36452" lon="5.78554">
        <ele>1099</ele>
        <time>2015-01-25T13:58:45Z</time>
      </trkpt>
      <trkpt lat="45.36401" lon="5.78519">
        <ele>1090</ele>
        <time>2015-01-25T13:59:16Z</time>
      </trkpt>
      <trkpt lat="45.36392" lon="5.78519">
        <ele>1088</ele>
        <time>2015-01-25T13:59:35Z</time>
      </trkpt>
      <trkpt lat="45.36372" lon="5.78517">
        <ele>1086</ele>
        <time>2015-01-25T13:59:41Z</time>
      </trkpt>
      <trkpt lat="45.36338" lon="5.78496">
        <ele>1081</ele>
        <time>2015-01-25T13:59:50Z</time>
      </trkpt>
      <trkpt lat="45.36289" lon="5.78484">
        <ele>1080</ele>
        <time>2015-01-25T14:01:11Z</time>
      </trkpt>
      <trkpt lat="45.36234" lon="5.7849">
        <ele>1079</ele>
        <time>2015-01-25T14:01:21Z</time>
      </trkpt>
      <trkpt lat="45.36215" lon="5.78478">
        <ele>1078</ele>
        <time>2015-01-25T14:01:34Z</time>
      </trkpt>
      <trkpt lat="45.36186" lon="5.78486">
        <ele>1076</ele>
        <time>2015-01-25T14:01:55Z</time>
      </trkpt>
      <trkpt lat="45.36157" lon="5.78492">
        <ele>1072</ele>
        <time>2015-01-25T14:02:00Z</time>
      </trkpt>
      <trkpt lat="45.36139" lon="5.78499">
        <ele>1069</ele>
        <time>2015-01-25T14:02:15Z</time>
      </trkpt>
      <trkpt lat="45.36072" lon="5.78515">
        <ele>1054</ele>
        <time>2015-01-25T14:04:30Z</time>
      </trkpt>
      <trkpt lat="45.36044" lon="5.78532">
        <ele>1045</ele>
        <time>2015-01-25T14:05:40Z</time>
      </trkpt>
      <trkpt lat="45.36019" lon="5.78586">
        <ele>1031</ele>
        <time>2015-01-25T14:06:00Z</time>
      </trkpt>
      <trkpt lat="45.36025" lon="5.7863">
        <ele>1031</ele>
        <time>2015-01-25T14:06:19Z</time>
      </trkpt>
      <trkpt lat="45.36078" lon="5.78708">
        <ele>1058</ele>
        <time>2015-01-25T14:07:19Z</time>
      </trkpt>
      <trkpt lat="45.36104" lon="5.78742">
        <ele>1066</ele>
        <time>2015-01-25T14:09:16Z</time>
      </trkpt>
      <trkpt lat="45.36105" lon="5.78742">
        <ele>1067</ele>
        <time>2015-01-25T14:09:32Z</time>
      </trkpt>
      <trkpt lat="45.36105" lon="5.78742">
        <ele>1067</ele>
        <time>2015-01-25T14:09:53Z</time>
      </trkpt>
      <trkpt lat="45.36105" lon="5.78742">
        <ele>1067</ele>
        <time>2015-01-25T14:10:08Z</time>
      </trkpt>
      <trkpt lat="45.36234" lon="5.78862">
        <ele>1061</ele>
        <time>2015-01-25T14:11:24Z</time>
      </trkpt>
      <trkpt lat="45.36251" lon="5.78873">
        <ele>1061</ele>
        <time>2015-01-25T14:11:30Z</time>
      </trkpt>
      <trkpt lat="45.36284" lon="5.78889">
        <ele>1064</ele>
        <time>2015-01-25T14:11:45Z</time>
      </trkpt>
    </trkseg>
  </trk>
</gpx>